createdAt,value
2023-12-28T00:00:14.849Z,28.22
2023-12-28T00:01:14.661Z,28.23
2023-12-28T00:02:14.522Z,28.21
2023-12-28T00:03:14.421Z,28.23
2023-12-28T00:04:14.213Z,28.21
2023-12-28T00:05:13.995Z,28.20
2023-12-28T00:06:13.822Z,28.23
2023-12-28T00:56:28.165Z,28.83
2023-12-28T00:57:05.268Z,28.65
2023-12-28T00:58:05.126Z,28.49
2023-12-28T00:59:04.931Z,28.44
2023-12-28T01:00:04.778Z,28.39
2023-12-28T01:01:04.779Z,28.35
2023-12-28T01:02:04.401Z,28.32
2023-12-28T01:03:04.332Z,28.31
2023-12-28T01:04:04.212Z,28.32
2023-12-28T01:05:03.907Z,28.30
2023-12-28T01:06:03.764Z,28.30
2023-12-28T01:07:03.681Z,28.30
2023-12-28T01:08:03.513Z,28.28
2023-12-28T01:09:03.234Z,28.28
2023-12-28T01:10:03.069Z,28.26
2023-12-28T01:11:02.919Z,28.26
2023-12-28T01:12:02.741Z,28.27
2023-12-28T01:13:02.558Z,28.28
2023-12-28T01:14:02.377Z,28.24
2023-12-28T01:15:01.220Z,28.28
2023-12-28T01:16:02.111Z,28.25
2023-12-28T01:17:01.861Z,28.23
2023-12-28T01:18:01.031Z,28.25
2023-12-28T01:19:01.695Z,28.26
2023-12-28T01:20:01.477Z,28.24
2023-12-28T01:21:01.194Z,28.21
2023-12-28T01:22:01.018Z,28.25
2023-12-28T01:23:00.863Z,28.22
2023-12-28T01:24:00.707Z,28.23
2023-12-28T01:25:00.525Z,28.24
2023-12-28T01:26:00.340Z,28.23
2023-12-28T01:27:00.511Z,28.21
2023-12-28T01:28:00.353Z,28.22
2023-12-28T01:28:59.854Z,28.23
2023-12-28T01:29:59.668Z,28.24
2023-12-28T01:30:59.598Z,28.21
2023-12-28T01:31:59.321Z,28.20
2023-12-28T01:32:59.196Z,28.23
2023-12-28T01:33:59.085Z,28.24
2023-12-28T01:34:59.147Z,28.19
2023-12-28T01:35:58.650Z,28.21
2023-12-28T01:36:58.521Z,28.24
2023-12-28T01:37:58.598Z,28.22
2023-12-28T01:38:58.151Z,28.23
2023-12-28T01:39:58.046Z,28.22
2023-12-28T01:40:57.819Z,28.20
2023-12-28T01:41:57.648Z,28.21
2023-12-28T01:42:57.568Z,28.21
2023-12-28T01:43:57.351Z,28.20
2023-12-28T01:44:57.134Z,28.21
2023-12-28T01:45:57.015Z,28.19
2023-12-28T01:46:56.793Z,28.24
2023-12-28T01:47:57.088Z,28.22
2023-12-28T01:48:56.556Z,28.21
2023-12-28T01:49:55.406Z,28.19
2023-12-28T01:50:56.136Z,28.20
2023-12-28T01:51:55.095Z,28.20
2023-12-28T01:52:56.417Z,28.20
2023-12-28T01:53:55.641Z,28.19
2023-12-28T01:54:54.490Z,28.21
2023-12-28T01:55:55.305Z,28.19
2023-12-28T01:56:55.131Z,28.14
2023-12-28T01:57:55.128Z,28.15
2023-12-28T01:58:54.791Z,28.16
2023-12-28T01:59:54.646Z,28.16
2023-12-28T02:00:54.513Z,28.15
2023-12-28T02:01:54.293Z,28.16
2023-12-28T02:02:54.730Z,28.11
2023-12-28T02:03:53.089Z,28.16
2023-12-28T02:04:53.779Z,28.14
2023-12-28T02:05:52.641Z,28.16
2023-12-28T02:06:53.468Z,28.14
2023-12-28T02:07:53.267Z,28.15
2023-12-28T02:08:52.111Z,28.16
2023-12-28T02:09:52.983Z,28.15
2023-12-28T02:10:52.751Z,28.16
2023-12-28T02:11:51.578Z,28.13
2023-12-28T02:12:53.258Z,28.14
2023-12-28T02:13:52.288Z,28.15
2023-12-28T02:14:52.080Z,28.13
2023-12-28T02:15:52.052Z,28.12
2023-12-28T02:16:51.725Z,28.12
2023-12-28T02:17:51.581Z,28.13
2023-12-28T02:18:51.441Z,28.11
2023-12-28T02:19:51.234Z,28.10
2023-12-28T02:20:51.065Z,28.11
2023-12-28T02:21:50.960Z,28.12
2023-12-28T02:22:50.731Z,28.14
2023-12-28T02:23:50.568Z,28.10
2023-12-28T02:24:50.453Z,28.11
2023-12-28T02:25:50.214Z,28.13
2023-12-28T02:26:50.056Z,28.12
2023-12-28T02:27:50.079Z,28.09
2023-12-28T02:28:49.719Z,28.08
2023-12-28T02:29:49.543Z,28.10
2023-12-28T02:30:49.488Z,28.11
2023-12-28T02:31:49.277Z,28.06
2023-12-28T02:32:49.153Z,28.08
2023-12-28T02:33:49.063Z,28.07
2023-12-28T02:34:47.731Z,28.07
2023-12-28T02:35:48.543Z,28.04
2023-12-28T02:36:48.465Z,28.07
2023-12-28T02:37:48.217Z,28.03
2023-12-28T02:38:48.056Z,28.06
2023-12-28T02:39:46.888Z,28.07
2023-12-28T02:40:47.720Z,28.06
2023-12-28T02:41:47.530Z,28.07
2023-12-28T02:42:47.420Z,28.05
2023-12-28T02:43:47.190Z,28.04
2023-12-28T02:44:46.018Z,28.02
2023-12-28T02:45:46.867Z,28.03
2023-12-28T02:46:46.690Z,28.05
2023-12-28T02:47:46.548Z,28.06
2023-12-28T02:48:46.561Z,28.08
2023-12-28T02:49:46.321Z,28.01
2023-12-28T02:50:45.985Z,28.07
2023-12-28T02:51:46.131Z,28.04
2023-12-28T02:52:45.876Z,28.05
2023-12-28T02:53:45.707Z,28.06
2023-12-28T02:54:45.589Z,28.06
2023-12-28T02:55:45.373Z,28.04
2023-12-28T02:56:45.208Z,28.06
2023-12-28T02:57:44.065Z,28.08
2023-12-28T02:58:44.875Z,28.05
2023-12-28T02:59:44.703Z,28.06
2023-12-28T03:00:44.625Z,28.06
2023-12-28T03:01:43.403Z,28.02
2023-12-28T03:02:45.216Z,28.06
2023-12-28T03:03:44.142Z,28.03
2023-12-28T03:04:43.034Z,28.05
2023-12-28T03:05:43.910Z,28.02
2023-12-28T03:06:43.759Z,28.02
2023-12-28T03:07:43.569Z,28.02
2023-12-28T03:08:43.343Z,27.99
2023-12-28T03:09:43.234Z,27.98
2023-12-28T03:10:42.077Z,28.01
2023-12-28T03:11:42.829Z,27.99
2023-12-28T03:12:42.732Z,27.99
2023-12-28T03:13:42.498Z,28.01
2023-12-28T03:14:42.319Z,28.00
2023-12-28T03:15:42.250Z,27.96
2023-12-28T03:16:41.970Z,27.98
2023-12-28T03:17:42.081Z,28.01
2023-12-28T03:18:41.778Z,27.95
2023-12-28T03:19:41.617Z,27.97
2023-12-28T03:20:41.277Z,27.98
2023-12-28T03:21:41.164Z,28.01
2023-12-28T03:22:40.938Z,27.93
2023-12-28T03:23:40.782Z,27.96
2023-12-28T03:24:40.615Z,27.99
2023-12-28T03:25:41.239Z,27.93
2023-12-28T03:26:39.481Z,27.96
2023-12-28T03:27:40.329Z,27.95
2023-12-28T03:28:40.243Z,27.95
2023-12-28T03:29:39.964Z,27.93
2023-12-28T03:30:39.941Z,27.95
2023-12-28T03:31:39.747Z,27.94
2023-12-28T03:32:39.471Z,27.98
2023-12-28T03:33:39.320Z,27.95
2023-12-28T03:34:39.200Z,27.97
2023-12-28T03:35:38.952Z,27.92
2023-12-28T03:36:38.797Z,27.90
2023-12-28T03:37:38.595Z,27.93
2023-12-28T03:38:38.439Z,27.91
2023-12-28T03:39:38.316Z,27.94
2023-12-28T03:40:38.094Z,27.94
2023-12-28T03:41:36.924Z,27.91
2023-12-28T03:42:37.798Z,27.93
2023-12-28T03:43:37.600Z,27.93
2023-12-28T03:44:37.441Z,27.91
2023-12-28T03:45:37.291Z,27.94
2023-12-28T03:46:37.091Z,27.90
2023-12-28T03:47:36.959Z,27.92
2023-12-28T03:48:36.868Z,27.93
2023-12-28T03:49:36.700Z,27.89
2023-12-28T03:50:36.428Z,27.91
2023-12-28T03:51:36.310Z,27.88
2023-12-28T03:52:36.109Z,27.90
2023-12-28T03:53:35.928Z,27.92
2023-12-28T03:54:35.801Z,27.91
2023-12-28T03:55:35.603Z,27.88
2023-12-28T03:56:35.436Z,27.88
2023-12-28T03:57:35.336Z,27.90
2023-12-28T03:58:35.121Z,27.90
2023-12-28T03:59:34.961Z,27.91
2023-12-28T04:00:34.814Z,27.91
2023-12-28T04:01:34.644Z,27.91
2023-12-28T04:02:34.421Z,27.89
2023-12-28T04:03:34.423Z,27.90
2023-12-28T04:04:34.171Z,27.91
2023-12-28T04:05:33.982Z,27.90
2023-12-28T04:06:34.814Z,27.87
2023-12-28T04:07:33.625Z,27.85
2023-12-28T04:08:33.561Z,27.87
2023-12-28T04:09:33.297Z,27.86
2023-12-28T04:10:33.306Z,27.87
2023-12-28T04:11:32.934Z,27.85
2023-12-28T04:12:32.830Z,27.85
2023-12-28T04:13:32.592Z,27.86
2023-12-28T04:14:32.424Z,27.87
2023-12-28T04:15:31.341Z,27.84
2023-12-28T04:16:32.085Z,27.85
2023-12-28T04:17:31.936Z,27.86
2023-12-28T04:18:31.899Z,27.87
2023-12-28T04:19:31.627Z,27.82
2023-12-28T04:20:31.411Z,27.85
2023-12-28T04:21:31.272Z,27.81
2023-12-28T04:22:31.094Z,27.83
2023-12-28T04:23:30.933Z,27.83
2023-12-28T04:24:30.770Z,27.85
2023-12-28T04:25:30.604Z,27.84
2023-12-28T04:26:30.412Z,27.84
2023-12-28T04:27:30.253Z,27.85
2023-12-28T04:28:30.102Z,27.82
2023-12-28T04:29:30.054Z,27.79
2023-12-28T04:30:29.784Z,27.76
2023-12-28T04:31:29.635Z,27.80
2023-12-28T04:32:29.405Z,27.83
2023-12-28T04:33:29.447Z,27.79
2023-12-28T04:34:29.085Z,27.81
2023-12-28T04:35:28.888Z,27.82
2023-12-28T04:36:28.737Z,27.81
2023-12-28T04:37:28.557Z,27.80
2023-12-28T04:38:28.378Z,27.85
2023-12-28T04:39:28.260Z,27.81
2023-12-28T04:40:28.059Z,27.83
2023-12-28T04:41:27.870Z,27.78
2023-12-28T04:42:27.749Z,27.77
2023-12-28T04:43:27.548Z,27.80
2023-12-28T04:44:27.371Z,27.77
2023-12-28T04:45:27.232Z,27.79
2023-12-28T04:46:27.016Z,27.75
2023-12-28T04:47:26.882Z,27.75
2023-12-28T04:48:26.937Z,27.75
2023-12-28T04:49:26.586Z,27.78
2023-12-28T04:50:26.351Z,27.77
2023-12-28T04:51:26.230Z,27.75
2023-12-28T04:52:26.010Z,27.74
2023-12-28T04:53:25.837Z,27.78
2023-12-28T04:54:25.678Z,27.77
2023-12-28T04:55:25.507Z,27.75
2023-12-28T04:56:25.315Z,27.75
2023-12-28T04:57:25.170Z,27.76
2023-12-28T04:58:24.999Z,27.73
2023-12-28T04:59:24.823Z,27.73
2023-12-28T05:00:24.669Z,27.76
2023-12-28T05:01:24.592Z,27.77
2023-12-28T05:02:24.312Z,27.78
2023-12-28T05:03:24.246Z,27.75
2023-12-28T05:04:24.065Z,27.76
2023-12-28T05:05:23.863Z,27.75
2023-12-28T05:06:23.758Z,27.76
2023-12-28T05:07:22.483Z,27.75
2023-12-28T05:08:23.316Z,27.77
2023-12-28T05:09:24.194Z,27.78
2023-12-28T05:10:21.980Z,27.74
2023-12-28T05:11:22.834Z,27.73
2023-12-28T05:12:22.812Z,27.70
2023-12-28T05:13:21.551Z,27.73
2023-12-28T05:14:22.296Z,27.74
2023-12-28T05:15:22.187Z,27.71
2023-12-28T05:16:21.981Z,27.72
2023-12-28T05:17:21.846Z,27.74
2023-12-28T05:18:21.790Z,27.71
2023-12-28T05:19:21.574Z,27.70
2023-12-28T05:20:21.346Z,27.73
2023-12-28T05:21:21.166Z,27.68
2023-12-28T05:22:21.002Z,27.69
2023-12-28T05:23:19.824Z,27.70
2023-12-28T05:24:19.716Z,27.71
2023-12-28T05:25:20.486Z,27.74
2023-12-28T05:26:20.307Z,27.75
2023-12-28T05:27:20.213Z,27.72
2023-12-28T05:28:20.016Z,27.71
2023-12-28T05:29:19.819Z,27.69
2023-12-28T05:30:19.814Z,27.66
2023-12-28T05:31:19.546Z,27.66
2023-12-28T05:32:20.362Z,27.71
2023-12-28T05:33:19.222Z,27.69
2023-12-28T05:34:19.068Z,27.68
2023-12-28T05:35:18.817Z,27.71
2023-12-28T05:36:18.667Z,27.72
2023-12-28T05:37:18.477Z,27.69
2023-12-28T05:38:18.346Z,27.71
2023-12-28T05:39:18.202Z,27.72
2023-12-28T05:40:17.985Z,27.70
2023-12-28T05:41:17.812Z,27.63
2023-12-28T05:42:17.691Z,27.67
2023-12-28T05:43:17.504Z,27.67
2023-12-28T05:44:17.307Z,27.66
2023-12-28T05:45:17.231Z,27.62
2023-12-28T05:46:16.975Z,27.66
2023-12-28T05:47:16.798Z,27.70
2023-12-28T05:48:16.856Z,27.70
2023-12-28T05:49:16.683Z,27.68
2023-12-28T05:50:16.338Z,27.62
2023-12-28T05:51:16.177Z,27.64
2023-12-28T05:52:16.043Z,27.65
2023-12-28T05:53:15.822Z,27.61
2023-12-28T05:54:15.705Z,27.64
2023-12-28T05:55:15.504Z,27.63
2023-12-28T05:56:15.339Z,27.61
2023-12-28T05:57:15.219Z,27.62
2023-12-28T05:58:15.004Z,27.64
2023-12-28T05:59:16.359Z,27.65
2023-12-28T06:00:15.808Z,27.69
2023-12-28T06:01:14.644Z,27.66
2023-12-28T06:02:14.340Z,27.63
2023-12-28T06:03:13.202Z,27.61
2023-12-28T06:04:14.166Z,27.62
2023-12-28T06:05:14.903Z,27.62
2023-12-28T06:06:13.692Z,27.60
2023-12-28T06:07:13.513Z,27.62
2023-12-28T06:08:13.364Z,27.60
2023-12-28T06:09:12.222Z,27.63
2023-12-28T06:10:13.071Z,27.64
2023-12-28T06:11:12.870Z,27.60
2023-12-28T06:12:12.701Z,27.63
2023-12-28T06:13:12.527Z,27.59
2023-12-28T06:14:12.372Z,27.60
2023-12-28T06:15:12.274Z,27.60
2023-12-28T06:16:12.186Z,27.63
2023-12-28T06:17:11.940Z,27.60
2023-12-28T06:18:11.849Z,27.59
2023-12-28T06:19:11.684Z,27.60
2023-12-28T06:20:10.485Z,27.62
2023-12-28T06:21:11.248Z,27.61
2023-12-28T06:22:11.053Z,27.61
2023-12-28T06:23:09.900Z,27.63
2023-12-28T06:24:10.706Z,27.63
2023-12-28T06:25:10.555Z,27.59
2023-12-28T06:26:09.379Z,27.63
2023-12-28T06:27:10.216Z,27.64
2023-12-28T06:28:10.088Z,27.64
2023-12-28T06:29:09.994Z,27.64
2023-12-28T06:30:10.135Z,27.61
2023-12-28T06:31:09.622Z,27.62
2023-12-28T06:32:09.376Z,27.62
2023-12-28T06:33:09.280Z,27.58
2023-12-28T06:34:09.507Z,27.59
2023-12-28T06:35:08.869Z,27.59
2023-12-28T06:36:08.716Z,27.62
2023-12-28T06:37:08.662Z,27.64
2023-12-28T06:38:08.365Z,27.58
2023-12-28T06:39:08.197Z,27.58
2023-12-28T06:40:08.056Z,27.61
2023-12-28T06:41:07.888Z,27.61
2023-12-28T06:42:06.726Z,27.63
2023-12-28T06:43:07.534Z,27.60
2023-12-28T06:44:07.376Z,27.61
2023-12-28T06:45:07.215Z,27.60
2023-12-28T06:46:06.048Z,27.60
2023-12-28T06:47:06.906Z,27.61
2023-12-28T06:48:05.790Z,27.58
2023-12-28T06:49:07.200Z,27.60
2023-12-28T06:50:06.611Z,27.64
2023-12-28T06:51:06.348Z,27.62
2023-12-28T06:52:06.212Z,27.58
2023-12-28T06:53:05.994Z,27.61
2023-12-28T06:54:05.834Z,27.60
2023-12-28T06:55:05.700Z,27.55
2023-12-28T06:56:05.532Z,27.57
2023-12-28T06:57:05.341Z,27.54
2023-12-28T06:58:05.309Z,27.53
2023-12-28T06:59:05.161Z,27.56
2023-12-28T07:00:05.296Z,27.52
2023-12-28T07:01:04.853Z,27.58
2023-12-28T07:02:05.452Z,27.53
2023-12-28T07:03:04.372Z,27.57
2023-12-28T07:04:04.230Z,27.56
2023-12-28T07:05:04.060Z,27.58
2023-12-28T07:06:02.831Z,27.58
2023-12-28T07:07:03.668Z,27.56
2023-12-28T07:08:03.503Z,27.59
2023-12-28T07:09:03.339Z,27.58
2023-12-28T07:10:03.152Z,27.57
2023-12-28T07:11:02.985Z,27.56
2023-12-28T07:12:02.824Z,27.57
2023-12-28T07:13:02.655Z,27.59
2023-12-28T07:14:02.515Z,27.57
2023-12-28T07:15:02.371Z,27.59
2023-12-28T07:16:02.408Z,27.56
2023-12-28T07:17:02.014Z,27.54
2023-12-28T07:18:02.150Z,27.52
2023-12-28T07:19:01.846Z,27.54
2023-12-28T07:20:01.577Z,27.55
2023-12-28T07:21:01.440Z,27.54
2023-12-28T07:22:01.242Z,27.56
2023-12-28T07:23:01.037Z,27.53
2023-12-28T07:24:00.868Z,27.53
2023-12-28T07:25:00.788Z,27.51
2023-12-28T07:26:00.543Z,27.52
2023-12-28T07:27:00.358Z,27.51
2023-12-28T07:28:00.429Z,27.52
2023-12-28T07:29:00.030Z,27.50
2023-12-28T07:29:59.863Z,27.52
2023-12-28T07:30:59.726Z,27.53
2023-12-28T07:31:59.512Z,27.50
2023-12-28T07:32:59.458Z,27.53
2023-12-28T07:33:59.337Z,27.54
2023-12-28T07:34:59.038Z,27.51
2023-12-28T07:35:58.885Z,27.49
2023-12-28T07:36:59.715Z,27.55
2023-12-28T07:37:58.802Z,27.51
2023-12-28T07:38:58.356Z,27.51
2023-12-28T07:39:58.199Z,27.53
2023-12-28T07:40:58.002Z,27.52
2023-12-28T07:41:57.841Z,27.55
2023-12-28T07:42:58.031Z,27.54
2023-12-28T07:43:57.510Z,27.55
2023-12-28T07:44:57.338Z,27.53
2023-12-28T07:45:57.269Z,27.54
2023-12-28T07:46:56.993Z,27.54
2023-12-28T07:47:57.211Z,27.52
2023-12-28T07:48:56.774Z,27.50
2023-12-28T07:49:56.546Z,27.54
2023-12-28T07:50:56.361Z,27.48
2023-12-28T07:51:55.233Z,27.48
2023-12-28T07:52:56.029Z,27.46
2023-12-28T07:53:55.860Z,27.47
2023-12-28T07:54:55.702Z,27.49
2023-12-28T07:55:55.519Z,27.53
2023-12-28T07:56:55.337Z,27.49
2023-12-28T07:57:55.275Z,27.47
2023-12-28T07:58:55.020Z,27.47
2023-12-28T07:59:54.870Z,27.47
2023-12-28T08:00:54.712Z,27.48
2023-12-28T08:01:54.529Z,27.50
2023-12-28T08:02:54.375Z,27.51
2023-12-28T08:03:54.301Z,27.49
2023-12-28T08:04:54.069Z,27.50
2023-12-28T08:05:53.907Z,27.49
2023-12-28T08:06:53.773Z,27.46
2023-12-28T08:07:53.547Z,27.46
2023-12-28T08:08:53.392Z,27.47
2023-12-28T08:09:53.272Z,27.47
2023-12-28T08:10:53.061Z,27.44
2023-12-28T08:11:52.950Z,27.47
2023-12-28T08:12:52.832Z,27.46
2023-12-28T08:13:52.634Z,27.45
2023-12-28T08:14:52.469Z,27.51
2023-12-28T08:15:52.473Z,27.50
2023-12-28T08:16:52.120Z,27.48
2023-12-28T08:17:52.033Z,27.49
2023-12-28T08:18:51.964Z,27.45
2023-12-28T08:19:50.911Z,27.47
2023-12-28T08:20:51.480Z,27.44
2023-12-28T08:21:51.503Z,27.46
2023-12-28T08:23:01.402Z,27.46
2023-12-28T08:23:50.971Z,27.46
2023-12-28T08:24:50.859Z,27.49
2023-12-28T08:25:50.650Z,27.48
2023-12-28T08:26:50.473Z,27.48
2023-12-28T08:27:50.384Z,27.44
2023-12-28T08:28:50.148Z,27.46
2023-12-28T08:29:49.984Z,27.46
2023-12-28T08:30:49.890Z,27.49
2023-12-28T08:31:49.739Z,27.47
2023-12-28T08:32:49.628Z,27.48
2023-12-28T08:33:49.385Z,27.44
2023-12-28T08:34:49.375Z,27.42
2023-12-28T08:35:48.998Z,27.42
2023-12-28T08:36:48.956Z,27.42
2023-12-28T08:37:48.627Z,27.45
2023-12-28T08:38:48.487Z,27.44
2023-12-28T08:39:48.334Z,27.43
2023-12-28T08:40:48.163Z,27.42
2023-12-28T08:41:47.995Z,27.43
2023-12-28T08:42:47.819Z,27.47
2023-12-28T08:43:47.636Z,27.44
2023-12-28T08:44:49.551Z,27.45
2023-12-28T08:45:47.334Z,27.44
2023-12-28T08:46:46.149Z,27.47
2023-12-28T08:47:46.978Z,27.42
2023-12-28T08:48:46.896Z,27.42
2023-12-28T08:49:45.702Z,27.46
2023-12-28T08:50:46.485Z,27.45
2023-12-28T08:51:46.382Z,27.43
2023-12-28T08:52:46.143Z,27.41
2023-12-28T08:53:45.994Z,27.44
2023-12-28T08:54:45.940Z,27.42
2023-12-28T08:55:45.679Z,27.43
2023-12-28T08:56:46.971Z,27.39
2023-12-28T08:57:45.400Z,27.42
2023-12-28T08:58:45.158Z,27.42
2023-12-28T08:59:44.997Z,27.39
2023-12-28T09:00:44.902Z,27.43
2023-12-28T09:01:44.785Z,27.41
2023-12-28T09:02:44.587Z,27.41
2023-12-28T09:03:44.496Z,27.41
2023-12-28T09:04:44.208Z,27.41
2023-12-28T09:05:44.015Z,27.42
2023-12-28T09:06:44.005Z,27.41
2023-12-28T09:07:43.654Z,27.40
2023-12-28T09:08:42.521Z,27.42
2023-12-28T09:09:43.453Z,27.42
2023-12-28T09:10:43.200Z,27.39
2023-12-28T09:11:43.076Z,27.42
2023-12-28T09:12:42.898Z,27.43
2023-12-28T09:13:42.673Z,27.41
2023-12-28T09:14:42.501Z,27.39
2023-12-28T09:15:42.368Z,27.40
2023-12-28T09:16:42.159Z,27.42
2023-12-28T09:17:43.117Z,27.39
2023-12-28T09:18:42.139Z,27.41
2023-12-28T09:19:40.845Z,27.41
2023-12-28T09:20:41.542Z,27.39
2023-12-28T09:21:41.436Z,27.39
2023-12-28T09:22:41.204Z,27.39
2023-12-28T09:23:41.037Z,27.40
2023-12-28T09:24:40.920Z,27.38
2023-12-28T09:25:40.713Z,27.40
2023-12-28T09:26:40.566Z,27.40
2023-12-28T09:27:40.583Z,27.38
2023-12-28T09:28:40.213Z,27.38
2023-12-28T09:29:40.091Z,27.39
2023-12-28T09:30:39.989Z,27.41
2023-12-28T09:31:39.910Z,27.40
2023-12-28T09:32:40.665Z,27.41
2023-12-28T09:33:39.504Z,27.43
2023-12-28T09:34:39.360Z,27.43
2023-12-28T09:35:39.072Z,27.44
2023-12-28T09:36:38.946Z,27.39
2023-12-28T09:37:38.751Z,27.36
2023-12-28T09:38:38.585Z,27.38
2023-12-28T09:39:38.471Z,27.39
2023-12-28T09:40:38.267Z,27.39
2023-12-28T09:41:38.092Z,27.37
2023-12-28T09:42:38.024Z,27.39
2023-12-28T09:43:37.799Z,27.40
2023-12-28T09:44:37.620Z,27.40
2023-12-28T09:45:37.501Z,27.38
2023-12-28T09:46:37.287Z,27.36
2023-12-28T09:47:37.113Z,27.40
2023-12-28T09:48:37.071Z,27.39
2023-12-28T09:49:36.853Z,27.41
2023-12-28T09:50:36.621Z,27.38
2023-12-28T09:51:36.547Z,27.38
2023-12-28T09:52:36.286Z,27.39
2023-12-28T09:53:36.124Z,27.35
2023-12-28T09:54:36.031Z,27.37
2023-12-28T09:55:35.793Z,27.37
2023-12-28T09:56:35.624Z,27.40
2023-12-28T09:57:35.592Z,27.35
2023-12-28T09:58:35.376Z,27.36
2023-12-28T09:59:35.137Z,27.34
2023-12-28T10:00:34.985Z,27.34
2023-12-28T10:01:34.847Z,27.34
2023-12-28T10:02:36.977Z,27.35
2023-12-28T10:03:34.516Z,27.32
2023-12-28T10:04:34.379Z,27.37
2023-12-28T10:05:34.191Z,27.35
2023-12-28T10:06:34.296Z,27.35
2023-12-28T10:07:32.779Z,27.36
2023-12-28T10:08:32.615Z,27.35
2023-12-28T10:09:33.482Z,27.40
2023-12-28T10:10:33.279Z,27.37
2023-12-28T10:11:33.111Z,27.37
2023-12-28T10:12:32.993Z,27.34
2023-12-28T10:13:31.789Z,27.38
2023-12-28T10:14:32.639Z,27.36
2023-12-28T10:15:32.470Z,27.38
2023-12-28T10:16:32.306Z,27.38
2023-12-28T10:17:32.131Z,27.36
2023-12-28T10:18:32.080Z,27.37
2023-12-28T10:19:32.916Z,27.34
2023-12-28T10:20:31.597Z,27.36
2023-12-28T10:21:31.438Z,27.36
2023-12-28T10:22:31.272Z,27.34
2023-12-28T10:23:31.099Z,27.34
2023-12-28T10:24:30.979Z,27.34
2023-12-28T10:25:30.872Z,27.35
2023-12-28T10:26:30.651Z,27.34
2023-12-28T10:27:30.458Z,27.32
2023-12-28T10:28:30.272Z,27.33
2023-12-28T10:29:30.081Z,27.30
2023-12-28T10:30:29.999Z,27.33
2023-12-28T10:31:29.911Z,27.35
2023-12-28T10:32:29.679Z,27.35
2023-12-28T10:33:29.543Z,27.37
2023-12-28T10:34:29.327Z,27.35
2023-12-28T10:35:29.105Z,27.32
2023-12-28T10:36:28.983Z,27.32
2023-12-28T10:37:28.720Z,27.31
2023-12-28T10:38:28.583Z,27.33
2023-12-28T10:39:28.510Z,27.31
2023-12-28T10:40:28.300Z,27.32
2023-12-28T10:41:28.046Z,27.34
2023-12-28T10:42:27.898Z,27.29
2023-12-28T10:43:27.709Z,27.33
2023-12-28T10:44:27.548Z,27.33
2023-12-28T10:45:27.488Z,27.34
2023-12-28T10:46:26.274Z,27.30
2023-12-28T10:47:27.077Z,27.33
2023-12-28T10:48:27.012Z,27.33
2023-12-28T10:49:27.523Z,27.34
2023-12-28T10:50:26.636Z,27.35
2023-12-28T10:51:26.433Z,27.35
2023-12-28T10:52:26.231Z,27.35
2023-12-28T10:53:26.059Z,27.37
2023-12-28T10:54:24.967Z,27.34
2023-12-28T10:55:25.761Z,27.38
2023-12-28T10:56:25.566Z,27.32
2023-12-28T10:57:25.431Z,27.34
2023-12-28T10:58:25.245Z,27.36
2023-12-28T10:59:25.076Z,27.35
2023-12-28T11:00:24.966Z,27.34
2023-12-28T11:01:24.845Z,27.38
2023-12-28T11:02:24.605Z,27.38
2023-12-28T11:03:24.450Z,27.37
2023-12-28T11:04:24.370Z,27.37
2023-12-28T11:05:24.358Z,27.34
2023-12-28T11:06:23.971Z,27.34
2023-12-28T11:07:23.803Z,27.36
2023-12-28T11:08:22.610Z,27.37
2023-12-28T11:09:23.517Z,27.33
2023-12-28T11:10:23.279Z,27.35
2023-12-28T11:11:23.118Z,27.38
2023-12-28T11:12:22.964Z,27.39
2023-12-28T11:13:21.797Z,27.41
2023-12-28T11:14:22.631Z,27.35
2023-12-28T11:15:22.592Z,27.35
2023-12-28T11:16:22.286Z,27.37
2023-12-28T11:17:22.201Z,27.38
2023-12-28T11:18:22.218Z,27.35
2023-12-28T11:19:21.928Z,27.40
2023-12-28T11:20:21.636Z,27.38
2023-12-28T11:21:21.517Z,27.36
2023-12-28T11:22:21.306Z,27.36
2023-12-28T11:23:21.157Z,27.36
2023-12-28T11:24:21.059Z,27.34
2023-12-28T11:25:20.845Z,27.37
2023-12-28T11:26:20.678Z,27.36
2023-12-28T11:27:20.573Z,27.37
2023-12-28T11:28:20.323Z,27.37
2023-12-28T11:29:20.168Z,27.37
2023-12-28T11:30:20.113Z,27.34
2023-12-28T11:31:19.878Z,27.37
2023-12-28T11:32:19.677Z,27.37
2023-12-28T11:33:19.593Z,27.39
2023-12-28T11:34:19.524Z,27.36
2023-12-28T11:35:19.224Z,27.37
2023-12-28T11:36:18.999Z,27.35
2023-12-28T11:37:18.848Z,27.36
2023-12-28T11:38:18.669Z,27.38
2023-12-28T11:39:18.532Z,27.38
2023-12-28T11:40:18.364Z,27.36
2023-12-28T11:41:18.161Z,27.40
2023-12-28T11:42:18.038Z,27.36
2023-12-28T11:43:17.833Z,27.39
2023-12-28T11:44:17.660Z,27.37
2023-12-28T11:45:17.497Z,27.35
2023-12-28T11:46:16.330Z,27.37
2023-12-28T11:47:17.188Z,27.36
2023-12-28T11:48:17.069Z,27.40
2023-12-28T11:49:16.916Z,27.39
2023-12-28T11:50:16.722Z,27.35
2023-12-28T11:51:16.585Z,27.36
2023-12-28T11:52:16.356Z,27.36
2023-12-28T11:53:16.189Z,27.36
2023-12-28T11:54:16.015Z,27.37
2023-12-28T11:55:15.863Z,27.38
2023-12-28T11:56:15.681Z,27.36
2023-12-28T11:57:15.522Z,27.38
2023-12-28T11:58:15.815Z,27.39
2023-12-28T11:59:15.151Z,27.38
2023-12-28T12:00:15.048Z,27.38
2023-12-28T12:01:14.922Z,27.36
2023-12-28T12:02:14.666Z,27.38
2023-12-28T12:03:14.495Z,27.38
2023-12-28T12:04:14.441Z,27.38
2023-12-28T12:05:14.169Z,27.37
2023-12-28T12:06:14.180Z,27.38
2023-12-28T12:07:13.975Z,27.40
2023-12-28T12:08:13.640Z,27.38
2023-12-28T12:09:13.475Z,27.39
2023-12-28T12:10:13.322Z,27.37
2023-12-28T12:11:13.150Z,27.37
2023-12-28T12:12:13.002Z,27.35
2023-12-28T12:13:12.891Z,27.38
2023-12-28T12:14:12.647Z,27.38
2023-12-28T12:15:12.501Z,27.38
2023-12-28T12:16:12.362Z,27.37
2023-12-28T12:17:12.141Z,27.38
2023-12-28T12:18:12.030Z,27.37
2023-12-28T12:19:11.896Z,27.41
2023-12-28T12:20:11.640Z,27.40
2023-12-28T12:21:11.470Z,27.40
2023-12-28T12:22:10.319Z,27.40
2023-12-28T12:23:11.110Z,27.39
2023-12-28T12:24:10.935Z,27.37
2023-12-28T12:25:10.803Z,27.37
2023-12-28T12:26:11.657Z,27.40
2023-12-28T12:27:10.450Z,27.39
2023-12-28T12:28:10.328Z,27.41
2023-12-28T12:29:10.104Z,27.39
2023-12-28T12:30:10.055Z,27.39
2023-12-28T12:31:09.862Z,27.40
2023-12-28T12:32:09.610Z,27.42
2023-12-28T12:33:09.574Z,27.42
2023-12-28T12:34:09.462Z,27.41
2023-12-28T12:35:09.206Z,27.40
2023-12-28T12:36:08.969Z,27.38
2023-12-28T12:37:08.879Z,27.40
2023-12-28T12:38:08.641Z,27.39
2023-12-28T12:39:08.462Z,27.38
2023-12-28T12:40:08.770Z,27.36
2023-12-28T12:41:08.117Z,27.37
2023-12-28T12:42:07.941Z,27.38
2023-12-28T12:43:07.796Z,27.37
2023-12-28T12:44:07.588Z,27.37
2023-12-28T12:45:07.468Z,27.38
2023-12-28T12:46:07.401Z,27.36
2023-12-28T12:47:06.091Z,27.37
2023-12-28T12:48:07.019Z,27.37
2023-12-28T12:49:06.867Z,27.37
2023-12-28T12:50:06.581Z,27.35
2023-12-28T12:51:06.386Z,27.38
2023-12-28T12:52:06.302Z,27.37
2023-12-28T12:53:06.029Z,27.38
2023-12-28T12:54:05.900Z,27.38
2023-12-28T12:55:05.772Z,27.39
2023-12-28T12:56:04.545Z,27.41
2023-12-28T12:57:05.353Z,27.41
2023-12-28T12:58:05.237Z,27.41
2023-12-28T12:59:05.017Z,27.39
2023-12-28T13:00:04.850Z,27.42
2023-12-28T13:01:04.843Z,27.40
2023-12-28T13:02:04.518Z,27.44
2023-12-28T13:03:04.346Z,27.40
2023-12-28T13:04:04.287Z,27.41
2023-12-28T13:05:04.157Z,27.43
2023-12-28T13:06:03.938Z,27.41
2023-12-28T13:07:03.799Z,27.42
2023-12-28T13:08:03.501Z,27.37
2023-12-28T13:09:03.342Z,27.42
2023-12-28T13:10:03.272Z,27.42
2023-12-28T13:11:02.979Z,27.38
2023-12-28T13:12:02.809Z,27.40
2023-12-28T13:13:03.271Z,27.43
2023-12-28T13:14:02.480Z,27.42
2023-12-28T13:15:02.332Z,27.41
2023-12-28T13:16:02.182Z,27.44
2023-12-28T13:17:01.976Z,27.41
2023-12-28T13:18:01.898Z,27.41
2023-12-28T13:19:01.719Z,27.40
2023-12-28T13:20:01.586Z,27.40
2023-12-28T13:21:01.275Z,27.42
2023-12-28T13:22:01.244Z,27.41
2023-12-28T13:23:02.977Z,27.41
2023-12-28T13:24:00.927Z,27.40
2023-12-28T13:25:00.771Z,27.40
2023-12-28T13:26:00.461Z,27.43
2023-12-28T13:27:00.315Z,27.40
2023-12-28T13:28:00.271Z,27.43
2023-12-28T13:29:00.266Z,27.42
2023-12-28T13:29:59.814Z,27.45
2023-12-28T13:30:59.679Z,27.44
2023-12-28T13:31:59.982Z,27.44
2023-12-28T13:32:59.812Z,27.44
2023-12-28T13:33:59.292Z,27.45
2023-12-28T13:35:02.870Z,27.45
2023-12-28T13:35:58.806Z,27.44
2023-12-28T13:36:58.723Z,27.45
2023-12-28T13:37:58.492Z,27.43
2023-12-28T13:38:58.296Z,27.45